sensor_id;sensor_type;location;lat;lon;timestamp;pressure;altitude;pressure_sealevel;temperature;humidity
42601;BME280;28229;48.856;9.088;2023-03-20T00:00:26;98170.34;;;8.40;100.00
42601;BME280;28229;48.856;9.088;2023-03-20T00:02:54;98174.16;;;8.37;100.00
42601;BME280;28229;48.856;9.088;2023-03-20T00:05:22;98179.66;;;8.43;100.00
42601;BME280;28229;48.856;9.088;2023-03-20T00:07:49;98166.94;;;8.39;100.00
42601;BME280;28229;48.856;9.088;2023-03-20T00:10:17;98172.78;;;8.42;100.00
42601;BME280;28229;48.856;9.088;2023-03-20T00:12:44;98168.19;;;8.44;100.00
42601;BME280;28229;48.856;9.088;2023-03-20T00:15:31;98173.16;;;8.38;100.00
42601;BME280;28229;48.856;9.088;2023-03-20T00:17:58;98172.19;;;8.39;100.00
42601;BME280;28229;48.856;9.088;2023-03-20T00:20:24;98169.34;;;8.41;100.00
42601;BME280;28229;48.856;9.088;2023-03-20T00:22:51;98163.94;;;8.43;100.00
42601;BME280;28229;48.856;9.088;2023-03-20T00:25:22;98166.69;;;8.28;100.00
42601;BME280;28229;48.856;9.088;2023-03-20T00:27:49;98169.13;;;8.29;100.00
42601;BME280;28229;48.856;9.088;2023-03-20T00:30:27;98165.47;;;8.30;100.00
42601;BME280;28229;48.856;9.088;2023-03-20T00:32:56;98170.31;;;8.33;100.00
42601;BME280;28229;48.856;9.088;2023-03-20T00:37:54;98185.59;;;8.23;100.00
42601;BME280;28229;48.856;9.088;2023-03-20T00:40:21;98176.34;;;8.20;100.00
42601;BME280;28229;48.856;9.088;2023-03-20T00:42:55;98184.78;;;8.16;100.00
42601;BME280;28229;48.856;9.088;2023-03-20T00:45:23;98177.59;;;8.31;100.00
42601;BME280;28229;48.856;9.088;2023-03-20T00:47:50;98182.59;;;8.26;100.00
42601;BME280;28229;48.856;9.088;2023-03-20T00:50:23;98183.22;;;8.28;100.00
42601;BME280;28229;48.856;9.088;2023-03-20T00:52:50;98174.13;;;8.24;100.00
42601;BME280;28229;48.856;9.088;2023-03-20T00:55:19;98179.38;;;8.24;100.00
42601;BME280;28229;48.856;9.088;2023-03-20T00:57:53;98172.69;;;8.15;100.00
42601;BME280;28229;48.856;9.088;2023-03-20T01:00:40;98184.97;;;8.14;100.00
42601;BME280;28229;48.856;9.088;2023-03-20T01:03:16;98183.50;;;8.05;100.00
42601;BME280;28229;48.856;9.088;2023-03-20T01:05:44;98185.53;;;8.03;100.00
42601;BME280;28229;48.856;9.088;2023-03-20T01:08:16;98180.66;;;8.00;100.00
42601;BME280;28229;48.856;9.088;2023-03-20T01:10:43;98186.31;;;7.97;100.00
42601;BME280;28229;48.856;9.088;2023-03-20T01:13:19;98181.88;;;7.97;100.00
42601;BME280;28229;48.856;9.088;2023-03-20T01:15:47;98182.47;;;7.99;100.00
42601;BME280;28229;48.856;9.088;2023-03-20T01:18:15;98182.34;;;8.08;100.00
42601;BME280;28229;48.856;9.088;2023-03-20T01:20:42;98180.28;;;8.03;100.00
42601;BME280;28229;48.856;9.088;2023-03-20T01:23:08;98176.63;;;7.97;100.00
42601;BME280;28229;48.856;9.088;2023-03-20T01:25:35;98180.44;;;7.88;100.00
42601;BME280;28229;48.856;9.088;2023-03-20T01:28:03;98178.84;;;7.94;100.00
42601;BME280;28229;48.856;9.088;2023-03-20T01:30:37;98180.25;;;7.96;100.00
42601;BME280;28229;48.856;9.088;2023-03-20T01:33:20;98177.25;;;7.99;100.00
42601;BME280;28229;48.856;9.088;2023-03-20T01:35:51;98179.03;;;7.92;100.00
42601;BME280;28229;48.856;9.088;2023-03-20T01:38:20;98188.28;;;7.95;100.00
42601;BME280;28229;48.856;9.088;2023-03-20T01:40:53;98189.13;;;7.95;100.00
42601;BME280;28229;48.856;9.088;2023-03-20T01:43:24;98185.91;;;7.93;100.00
42601;BME280;28229;48.856;9.088;2023-03-20T01:46:01;98187.31;;;7.96;100.00
42601;BME280;28229;48.856;9.088;2023-03-20T01:48:55;98192.72;;;7.94;100.00
42601;BME280;28229;48.856;9.088;2023-03-20T01:51:28;98192.28;;;7.84;100.00
42601;BME280;28229;48.856;9.088;2023-03-20T01:54:10;98189.47;;;7.86;100.00
42601;BME280;28229;48.856;9.088;2023-03-20T01:57:14;98194.50;;;7.87;100.00
42601;BME280;28229;48.856;9.088;2023-03-20T01:59:46;98195.13;;;7.89;100.00
42601;BME280;28229;48.856;9.088;2023-03-20T02:02:19;98191.88;;;7.87;100.00
42601;BME280;28229;48.856;9.088;2023-03-20T02:04:50;98201.81;;;7.92;100.00
42601;BME280;28229;48.856;9.088;2023-03-20T02:07:20;98207.59;;;7.87;100.00
42601;BME280;28229;48.856;9.088;2023-03-20T02:09:59;98210.19;;;7.80;100.00
42601;BME280;28229;48.856;9.088;2023-03-20T02:12:37;98208.41;;;7.81;100.00
42601;BME280;28229;48.856;9.088;2023-03-20T02:15:06;98213.63;;;7.81;100.00
42601;BME280;28229;48.856;9.088;2023-03-20T02:17:49;98205.09;;;7.72;100.00
42601;BME280;28229;48.856;9.088;2023-03-20T02:40:19;98216.75;;;7.70;100.00
42601;BME280;28229;48.856;9.088;2023-03-20T02:43:12;98216.75;;;7.70;100.00
42601;BME280;28229;48.856;9.088;2023-03-20T02:48:45;98216.75;;;7.70;100.00
42601;BME280;28229;48.856;9.088;2023-03-20T02:53:54;98214.31;;;7.61;100.00
42601;BME280;28229;48.856;9.088;2023-03-20T02:59:25;98211.94;;;7.67;100.00
42601;BME280;28229;48.856;9.088;2023-03-20T03:02:08;98221.91;;;7.56;100.00
42601;BME280;28229;48.856;9.088;2023-03-20T03:04:49;98220.53;;;7.60;100.00
42601;BME280;28229;48.856;9.088;2023-03-20T03:07:18;98219.78;;;7.67;100.00
42601;BME280;28229;48.856;9.088;2023-03-20T03:09:53;98226.38;;;7.62;100.00
42601;BME280;28229;48.856;9.088;2023-03-20T03:12:23;98221.97;;;7.63;100.00
42601;BME280;28229;48.856;9.088;2023-03-20T03:15:03;98223.94;;;7.54;100.00
42601;BME280;28229;48.856;9.088;2023-03-20T03:17:33;98229.16;;;7.54;100.00
42601;BME280;28229;48.856;9.088;2023-03-20T03:20:11;98223.34;;;7.59;100.00
42601;BME280;28229;48.856;9.088;2023-03-20T03:22:40;98228.75;;;7.57;100.00
42601;BME280;28229;48.856;9.088;2023-03-20T03:25:09;98221.16;;;7.62;100.00
42601;BME280;28229;48.856;9.088;2023-03-20T03:27:40;98234.00;;;7.57;100.00
42601;BME280;28229;48.856;9.088;2023-03-20T03:30:17;98234.00;;;7.57;100.00
42601;BME280;28229;48.856;9.088;2023-03-20T03:33:20;98228.53;;;7.52;100.00
42601;BME280;28229;48.856;9.088;2023-03-20T03:35:50;98229.97;;;7.55;100.00
42601;BME280;28229;48.856;9.088;2023-03-20T03:41:21;98236.16;;;7.47;100.00
42601;BME280;28229;48.856;9.088;2023-03-20T03:49:12;98235.13;;;7.48;100.00
42601;BME280;28229;48.856;9.088;2023-03-20T03:51:42;98231.28;;;7.44;100.00
42601;BME280;28229;48.856;9.088;2023-03-20T03:54:16;98232.94;;;7.45;100.00
42601;BME280;28229;48.856;9.088;2023-03-20T03:56:49;98235.53;;;7.45;100.00
42601;BME280;28229;48.856;9.088;2023-03-20T03:59:30;98232.94;;;7.45;100.00
42601;BME280;28229;48.856;9.088;2023-03-20T04:01:59;98244.88;;;7.54;100.00
42601;BME280;28229;48.856;9.088;2023-03-20T04:04:26;98243.59;;;7.50;100.00
42601;BME280;28229;48.856;9.088;2023-03-20T04:06:53;98251.47;;;7.50;100.00
42601;BME280;28229;48.856;9.088;2023-03-20T04:09:20;98246.88;;;7.52;100.00
42601;BME280;28229;48.856;9.088;2023-03-20T04:11:51;98243.84;;;7.55;100.00
42601;BME280;28229;48.856;9.088;2023-03-20T04:14:18;98252.41;;;7.42;100.00
42601;BME280;28229;48.856;9.088;2023-03-20T04:16:45;98247.97;;;7.43;100.00
42601;BME280;28229;48.856;9.088;2023-03-20T04:19:12;98243.41;;;7.45;100.00
42601;BME280;28229;48.856;9.088;2023-03-20T04:21:43;98244.81;;;7.48;100.00
42601;BME280;28229;48.856;9.088;2023-03-20T04:24:10;98239.38;;;7.49;100.00
42601;BME280;28229;48.856;9.088;2023-03-20T04:26:40;98233.97;;;7.51;100.00
42601;BME280;28229;48.856;9.088;2023-03-20T04:29:07;98242.63;;;7.51;99.86
42601;BME280;28229;48.856;9.088;2023-03-20T04:31:33;98235.91;;;7.42;100.00
42601;BME280;28229;48.856;9.088;2023-03-20T04:34:08;98233.53;;;7.47;100.00
42601;BME280;28229;48.856;9.088;2023-03-20T04:36:58;98232.88;;;7.38;100.00
42601;BME280;28229;48.856;9.088;2023-03-20T04:39:35;98235.28;;;7.40;100.00
42601;BME280;28229;48.856;9.088;2023-03-20T04:42:04;98235.66;;;7.37;100.00
42601;BME280;28229;48.856;9.088;2023-03-20T04:44:31;98237.50;;;7.43;100.00
42601;BME280;28229;48.856;9.088;2023-03-20T04:46:57;98238.34;;;7.43;100.00
42601;BME280;28229;48.856;9.088;2023-03-20T04:49:24;98246.75;;;7.39;100.00
42601;BME280;28229;48.856;9.088;2023-03-20T04:51:50;98245.75;;;7.40;100.00
42601;BME280;28229;48.856;9.088;2023-03-20T04:54:34;98254.94;;;7.29;100.00
42601;BME280;28229;48.856;9.088;2023-03-20T04:57:01;98252.75;;;7.33;100.00
42601;BME280;28229;48.856;9.088;2023-03-20T04:59:28;98257.16;;;7.32;100.00
42601;BME280;28229;48.856;9.088;2023-03-20T05:01:55;98250.88;;;7.27;100.00
42601;BME280;28229;48.856;9.088;2023-03-20T05:04:22;98252.75;;;7.33;100.00
42601;BME280;28229;48.856;9.088;2023-03-20T05:06:48;98259.59;;;7.34;100.00
42601;BME280;28229;48.856;9.088;2023-03-20T05:09:17;98262.09;;;7.42;100.00
42601;BME280;28229;48.856;9.088;2023-03-20T05:11:44;98267.31;;;7.42;100.00
42601;BME280;28229;48.856;9.088;2023-03-20T05:14:30;98263.06;;;7.41;100.00
42601;BME280;28229;48.856;9.088;2023-03-20T05:17:15;98272.19;;;7.45;100.00
42601;BME280;28229;48.856;9.088;2023-03-20T05:20:12;98268.19;;;7.49;100.00
42601;BME280;28229;48.856;9.088;2023-03-20T05:23:05;98271.41;;;7.51;100.00
42601;BME280;28229;48.856;9.088;2023-03-20T05:25:54;98268.81;;;7.51;100.00
42601;BME280;28229;48.856;9.088;2023-03-20T05:28:34;98259.72;;;7.47;100.00
42601;BME280;28229;48.856;9.088;2023-03-20T05:31:21;98263.50;;;7.44;100.00
42601;BME280;28229;48.856;9.088;2023-03-20T05:34:05;98261.72;;;7.45;100.00
42601;BME280;28229;48.856;9.088;2023-03-20T05:36:56;98258.28;;;7.44;100.00
42601;BME280;28229;48.856;9.088;2023-03-20T05:39:36;98263.69;;;7.43;100.00
42601;BME280;28229;48.856;9.088;2023-03-20T05:42:19;98261.72;;;7.45;100.00
42601;BME280;28229;48.856;9.088;2023-03-20T05:45:14;98264.56;;;7.50;100.00
42601;BME280;28229;48.856;9.088;2023-03-20T05:47:57;98268.81;;;7.51;100.00
42601;BME280;28229;48.856;9.088;2023-03-20T05:50:44;98275.44;;;7.47;100.00
42601;BME280;28229;48.856;9.088;2023-03-20T05:53:35;98278.66;;;7.49;100.00
42601;BME280;28229;48.856;9.088;2023-03-20T05:56:20;98285.13;;;7.53;100.00
42601;BME280;28229;48.856;9.088;2023-03-20T05:59:02;98280.94;;;7.59;99.95
42601;BME280;28229;48.856;9.088;2023-03-20T06:01:37;98286.34;;;7.57;99.50
42601;BME280;28229;48.856;9.088;2023-03-20T06:04:17;98287.19;;;7.58;99.88
42601;BME280;28229;48.856;9.088;2023-03-20T06:06:59;98286.22;;;7.66;100.00
42601;BME280;28229;48.856;9.088;2023-03-20T06:09:27;98290.50;;;7.67;100.00
42601;BME280;28229;48.856;9.088;2023-03-20T06:11:53;98297.31;;;7.68;100.00
42601;BME280;28229;48.856;9.088;2023-03-20T06:14:20;98296.59;;;7.74;100.00
42601;BME280;28229;48.856;9.088;2023-03-20T06:16:54;98300.25;;;7.79;100.00
42601;BME280;28229;48.856;9.088;2023-03-20T06:19:22;98301.00;;;7.73;99.86
42601;BME280;28229;48.856;9.088;2023-03-20T06:21:49;98295.75;;;7.73;100.00
42601;BME280;28229;48.856;9.088;2023-03-20T06:24:19;98300.69;;;7.83;99.71
42601;BME280;28229;48.856;9.088;2023-03-20T06:26:45;98295.00;;;7.79;98.00
42601;BME280;28229;48.856;9.088;2023-03-20T06:29:13;98291.81;;;7.84;96.99
42601;BME280;28229;48.856;9.088;2023-03-20T06:31:39;98293.06;;;7.88;95.30
42601;BME280;28229;48.856;9.088;2023-03-20T06:34:12;98290.63;;;7.87;95.74
42601;BME280;28229;48.856;9.088;2023-03-20T06:36:43;98281.75;;;7.88;95.58
42601;BME280;28229;48.856;9.088;2023-03-20T06:39:16;98287.81;;;7.88;95.90
42601;BME280;28229;48.856;9.088;2023-03-20T06:41:43;98284.19;;;7.89;96.74
42601;BME280;28229;48.856;9.088;2023-03-20T06:44:09;98287.66;;;7.96;95.90
42601;BME280;28229;48.856;9.088;2023-03-20T06:47:04;98296.84;;;8.14;97.82
42601;BME280;28229;48.856;9.088;2023-03-20T06:49:30;98292.06;;;8.24;95.70
42601;BME280;28229;48.856;9.088;2023-03-20T06:51:56;98289.69;;;8.29;94.11
42601;BME280;28229;48.856;9.088;2023-03-20T06:54:25;98287.69;;;8.31;92.54
42601;BME280;28229;48.856;9.088;2023-03-20T06:56:54;98289.28;;;8.32;92.69
42601;BME280;28229;48.856;9.088;2023-03-20T06:59:21;98295.16;;;8.34;92.90
42601;BME280;28229;48.856;9.088;2023-03-20T07:01:48;98303.88;;;8.42;91.90
42601;BME280;28229;48.856;9.088;2023-03-20T07:04:14;98307.13;;;8.44;92.28
42601;BME280;28229;48.856;9.088;2023-03-20T07:06:47;98312.41;;;8.50;92.16
42601;BME280;28229;48.856;9.088;2023-03-20T07:09:13;98318.69;;;8.56;91.76
42601;BME280;28229;48.856;9.088;2023-03-20T07:11:39;98314.91;;;8.65;90.54
42601;BME280;28229;48.856;9.088;2023-03-20T07:14:06;98317.53;;;8.65;90.60
42601;BME280;28229;48.856;9.088;2023-03-20T07:16:47;98322.22;;;8.83;89.86
42601;BME280;28229;48.856;9.088;2023-03-20T07:19:13;98334.78;;;8.94;90.60
42601;BME280;28229;48.856;9.088;2023-03-20T07:21:42;98334.59;;;8.96;89.76
42601;BME280;28229;48.856;9.088;2023-03-20T07:24:12;98341.09;;;9.00;89.64
42601;BME280;28229;48.856;9.088;2023-03-20T07:26:39;98342.06;;;8.99;89.15
42601;BME280;28229;48.856;9.088;2023-03-20T07:29:07;98338.84;;;8.97;88.70
42601;BME280;28229;48.856;9.088;2023-03-20T07:31:33;98335.03;;;9.06;89.48
42601;BME280;28229;48.856;9.088;2023-03-20T07:34:26;98334.03;;;9.14;88.60
42601;BME280;28229;48.856;9.088;2023-03-20T07:36:54;98335.69;;;9.22;88.67
42601;BME280;28229;48.856;9.088;2023-03-20T07:39:21;98333.88;;;9.29;88.74
42601;BME280;28229;48.856;9.088;2023-03-20T07:42:02;98337.69;;;9.26;88.80
42601;BME280;28229;48.856;9.088;2023-03-20T07:44:44;98336.09;;;9.32;87.39
42601;BME280;28229;48.856;9.088;2023-03-20T07:47:11;98341.34;;;9.32;88.32
42601;BME280;28229;48.856;9.088;2023-03-20T07:49:37;98349.03;;;9.33;88.03
42601;BME280;28229;48.856;9.088;2023-03-20T07:52:03;98339.34;;;9.34;86.94
42601;BME280;28229;48.856;9.088;2023-03-20T07:54:30;98335.88;;;9.27;86.08
42601;BME280;28229;48.856;9.088;2023-03-20T07:56:57;98339.75;;;9.31;86.78
42601;BME280;28229;48.856;9.088;2023-03-20T07:59:23;98334.91;;;9.41;86.33
42601;BME280;28229;48.856;9.088;2023-03-20T08:01:50;98336.13;;;9.39;85.55
42601;BME280;28229;48.856;9.088;2023-03-20T08:04:17;98330.44;;;9.35;85.52
42601;BME280;28229;48.856;9.088;2023-03-20T08:06:44;98336.91;;;9.39;85.87
42601;BME280;28229;48.856;9.088;2023-03-20T08:09:10;98337.34;;;9.36;85.63
42601;BME280;28229;48.856;9.088;2023-03-20T08:11:37;98333.69;;;9.37;86.13
42601;BME280;28229;48.856;9.088;2023-03-20T08:14:03;98338.53;;;9.40;87.00
42601;BME280;28229;48.856;9.088;2023-03-20T08:16:29;98337.31;;;9.43;85.85
42601;BME280;28229;48.856;9.088;2023-03-20T08:18:55;98341.41;;;9.52;84.75
42601;BME280;28229;48.856;9.088;2023-03-20T08:21:27;98344.63;;;9.54;85.01
42601;BME280;28229;48.856;9.088;2023-03-20T08:23:53;98347.47;;;9.66;84.02
42601;BME280;28229;48.856;9.088;2023-03-20T08:26:20;98355.16;;;9.74;83.42
42601;BME280;28229;48.856;9.088;2023-03-20T08:28:46;98351.69;;;9.80;83.43
42601;BME280;28229;48.856;9.088;2023-03-20T08:31:13;98346.25;;;9.88;81.82
42601;BME280;28229;48.856;9.088;2023-03-20T08:33:39;98344.44;;;9.96;81.59
42601;BME280;28229;48.856;9.088;2023-03-20T08:36:06;98345.44;;;10.08;81.60
42601;BME280;28229;48.856;9.088;2023-03-20T08:38:32;98335.34;;;10.12;80.42
42601;BME280;28229;48.856;9.088;2023-03-20T08:40:58;98334.09;;;10.21;81.54
42601;BME280;28229;48.856;9.088;2023-03-20T08:43:24;98338.16;;;10.37;79.78
42601;BME280;28229;48.856;9.088;2023-03-20T08:45:51;98335.31;;;10.45;79.28
42601;BME280;28229;48.856;9.088;2023-03-20T08:48:17;98330.44;;;10.55;78.86
42601;BME280;28229;48.856;9.088;2023-03-20T08:50:43;98333.22;;;10.60;77.63
42601;BME280;28229;48.856;9.088;2023-03-20T08:53:09;98329.97;;;10.65;78.09
42601;BME280;28229;48.856;9.088;2023-03-20T08:55:36;98323.03;;;10.84;78.30
42601;BME280;28229;48.856;9.088;2023-03-20T08:58:03;98336.91;;;11.04;78.31
42601;BME280;28229;48.856;9.088;2023-03-20T09:00:29;98335.00;;;11.25;76.59
42601;BME280;28229;48.856;9.088;2023-03-20T09:02:56;98332.84;;;11.40;75.27
42601;BME280;28229;48.856;9.088;2023-03-20T09:05:22;98334.63;;;11.78;75.77
42601;BME280;28229;48.856;9.088;2023-03-20T09:07:48;98334.44;;;12.05;73.58
42601;BME280;28229;48.856;9.088;2023-03-20T09:10:17;98330.28;;;12.16;71.70
42601;BME280;28229;48.856;9.088;2023-03-20T09:12:43;98345.28;;;12.15;70.75
42601;BME280;28229;48.856;9.088;2023-03-20T09:15:09;98345.28;;;12.15;71.04
42601;BME280;28229;48.856;9.088;2023-03-20T09:17:36;98346.16;;;12.09;71.47
42601;BME280;28229;48.856;9.088;2023-03-20T09:20:03;98346.00;;;12.04;71.22
42601;BME280;28229;48.856;9.088;2023-03-20T09:22:30;98342.50;;;12.10;71.50
42601;BME280;28229;48.856;9.088;2023-03-20T09:24:56;98348.75;;;11.91;71.12
42601;BME280;28229;48.856;9.088;2023-03-20T09:27:22;98337.66;;;12.07;70.69
42601;BME280;28229;48.856;9.088;2023-03-20T09:29:49;98342.38;;;12.24;71.08
42601;BME280;28229;48.856;9.088;2023-03-20T09:32:15;98344.28;;;12.35;70.49
42601;BME280;28229;48.856;9.088;2023-03-20T09:34:41;98341.81;;;12.40;69.33
42601;BME280;28229;48.856;9.088;2023-03-20T09:37:08;98345.03;;;12.42;70.50
42601;BME280;28229;48.856;9.088;2023-03-20T09:39:34;98341.53;;;12.48;70.17
42601;BME280;28229;48.856;9.088;2023-03-20T09:45:00;98344.00;;;12.62;68.56
42601;BME280;28229;48.856;9.088;2023-03-20T09:50:34;98353.28;;;12.71;66.61
42601;BME280;28229;48.856;9.088;2023-03-20T09:53:10;98350.31;;;12.61;68.27
42601;BME280;28229;48.856;9.088;2023-03-20T09:55:39;98357.56;;;12.47;69.24
42601;BME280;28229;48.856;9.088;2023-03-20T09:58:23;98358.22;;;12.42;68.38
42601;BME280;28229;48.856;9.088;2023-03-20T10:00:51;98355.41;;;12.37;68.99
42601;BME280;28229;48.856;9.088;2023-03-20T10:03:25;98356.03;;;12.39;70.20
42601;BME280;28229;48.856;9.088;2023-03-20T10:06:03;98362.47;;;12.25;71.06
42601;BME280;28229;48.856;9.088;2023-03-20T10:08:36;98359.66;;;12.19;70.35
42601;BME280;28229;48.856;9.088;2023-03-20T10:13:59;98358.63;;;12.21;69.35
42601;BME280;28229;48.856;9.088;2023-03-20T10:19:15;98359.09;;;12.17;68.99
42601;BME280;28229;48.856;9.088;2023-03-20T10:21:47;98363.75;;;12.15;68.67
42601;BME280;28229;48.856;9.088;2023-03-20T10:24:37;98362.63;;;12.05;69.53
42601;BME280;28229;48.856;9.088;2023-03-20T10:27:12;98371.53;;;11.78;69.66
42601;BME280;28229;48.856;9.088;2023-03-20T10:32:25;98367.25;;;11.52;71.89
42601;BME280;28229;48.856;9.088;2023-03-20T10:35:11;98375.78;;;11.48;73.20
42601;BME280;28229;48.856;9.088;2023-03-20T10:40:29;98367.16;;;11.34;74.43
42601;BME280;28229;48.856;9.088;2023-03-20T10:43:04;98362.09;;;11.32;75.95
42601;BME280;28229;48.856;9.088;2023-03-20T10:45:33;98354.94;;;11.46;75.84
42601;BME280;28229;48.856;9.088;2023-03-20T10:48:05;98355.78;;;11.65;75.76
42601;BME280;28229;48.856;9.088;2023-03-20T10:50:40;98354.88;;;11.78;76.57
42601;BME280;28229;48.856;9.088;2023-03-20T10:53:21;98348.31;;;11.94;76.65
42601;BME280;28229;48.856;9.088;2023-03-20T10:55:49;98344.91;;;12.12;74.38
42601;BME280;28229;48.856;9.088;2023-03-20T10:58:23;98347.66;;;12.24;71.20
42601;BME280;28229;48.856;9.088;2023-03-20T11:00:54;98351.63;;;12.33;70.38
42601;BME280;28229;48.856;9.088;2023-03-20T11:03:24;98351.78;;;12.56;71.56
42601;BME280;28229;48.856;9.088;2023-03-20T11:06:03;98346.59;;;12.68;69.01
42601;BME280;28229;48.856;9.088;2023-03-20T11:08:42;98348.09;;;12.76;69.37
42601;BME280;28229;48.856;9.088;2023-03-20T11:11:11;98345.19;;;12.84;68.62
42601;BME280;28229;48.856;9.088;2023-03-20T11:13:41;98340.72;;;13.15;68.70
42601;BME280;28229;48.856;9.088;2023-03-20T11:16:23;98345.38;;;13.50;64.97
42601;BME280;28229;48.856;9.088;2023-03-20T11:18:51;98347.66;;;13.58;65.71
42601;BME280;28229;48.856;9.088;2023-03-20T11:23:49;98345.22;;;13.87;64.17
42601;BME280;28229;48.856;9.088;2023-03-20T11:26:18;98344.97;;;14.00;61.79
42601;BME280;28229;48.856;9.088;2023-03-20T11:28:55;98342.69;;;14.16;62.48
42601;BME280;28229;48.856;9.088;2023-03-20T11:31:37;98351.22;;;14.18;62.11
42601;BME280;28229;48.856;9.088;2023-03-20T11:36:45;98341.53;;;14.35;59.50
42601;BME280;28229;48.856;9.088;2023-03-20T11:39:24;98340.16;;;14.44;57.65
42601;BME280;28229;48.856;9.088;2023-03-20T11:41:54;98339.94;;;14.34;56.75
42601;BME280;28229;48.856;9.088;2023-03-20T11:44:23;98342.94;;;14.26;57.51
42601;BME280;28229;48.856;9.088;2023-03-20T11:46:54;98333.22;;;14.43;55.99
42601;BME280;28229;48.856;9.088;2023-03-20T11:49:23;98334.06;;;14.44;55.50
42601;BME280;28229;48.856;9.088;2023-03-20T11:51:51;98335.91;;;14.32;53.98
42601;BME280;28229;48.856;9.088;2023-03-20T11:54:20;98331.06;;;14.17;54.85
42601;BME280;28229;48.856;9.088;2023-03-20T11:56:54;98333.00;;;13.86;58.81
42601;BME280;28229;48.856;9.088;2023-03-20T11:59:26;98332.97;;;13.62;59.55
42601;BME280;28229;48.856;9.088;2023-03-20T12:01:56;98334.44;;;13.58;60.31
42601;BME280;28229;48.856;9.088;2023-03-20T12:04:31;98326.91;;;13.74;60.52
42601;BME280;28229;48.856;9.088;2023-03-20T12:07:10;98327.94;;;13.73;59.39
42601;BME280;28229;48.856;9.088;2023-03-20T12:12:37;98325.50;;;13.59;58.05
42601;BME280;28229;48.856;9.088;2023-03-20T12:20:45;98317.13;;;13.62;57.76
42601;BME280;28229;48.856;9.088;2023-03-20T12:26:20;98313.91;;;13.72;57.61
42601;BME280;28229;48.856;9.088;2023-03-20T12:28:55;98312.88;;;13.85;58.30
42601;BME280;28229;48.856;9.088;2023-03-20T12:31:47;98310.34;;;13.90;58.00
42601;BME280;28229;48.856;9.088;2023-03-20T12:36:49;98301.28;;;13.86;57.67
42601;BME280;28229;48.856;9.088;2023-03-20T12:39:20;98297.34;;;13.53;57.04
42601;BME280;28229;48.856;9.088;2023-03-20T12:42:04;98297.97;;;13.37;57.31
42601;BME280;28229;48.856;9.088;2023-03-20T12:44:46;98297.63;;;13.33;57.25
42601;BME280;28229;48.856;9.088;2023-03-20T12:47:46;98296.09;;;13.25;56.54
42601;BME280;28229;48.856;9.088;2023-03-20T12:58:35;98291.50;;;13.75;57.10
42601;BME280;28229;48.856;9.088;2023-03-20T13:06:55;98282.63;;;13.57;55.97
42601;BME280;28229;48.856;9.088;2023-03-20T13:20:37;98265.84;;;14.11;52.29
42601;BME280;28229;48.856;9.088;2023-03-20T13:23:44;98267.25;;;14.01;54.74
42601;BME280;28229;48.856;9.088;2023-03-20T13:29:36;98257.53;;;14.19;54.05
42601;BME280;28229;48.856;9.088;2023-03-20T13:37:47;98252.34;;;14.36;53.43
42601;BME280;28229;48.856;9.088;2023-03-20T13:40:31;98246.38;;;14.40;54.39
42601;BME280;28229;48.856;9.088;2023-03-20T13:45:44;98251.63;;;14.64;53.11
42601;BME280;28229;48.856;9.088;2023-03-20T13:48:31;98237.59;;;14.63;52.28
42601;BME280;28229;48.856;9.088;2023-03-20T13:54:29;98233.41;;;14.56;51.50
42601;BME280;28229;48.856;9.088;2023-03-20T14:02:04;98231.97;;;14.48;51.66
42601;BME280;28229;48.856;9.088;2023-03-20T14:04:37;98228.75;;;14.46;52.72
42601;BME280;28229;48.856;9.088;2023-03-20T14:07:27;98231.06;;;14.42;51.85
42601;BME280;28229;48.856;9.088;2023-03-20T14:09:54;98225.75;;;14.42;52.30
42601;BME280;28229;48.856;9.088;2023-03-20T14:12:24;98223.91;;;14.43;52.73
42601;BME280;28229;48.856;9.088;2023-03-20T14:14:57;98216.19;;;14.41;53.13
42601;BME280;28229;48.856;9.088;2023-03-20T14:17:28;98217.72;;;14.37;52.88
42601;BME280;28229;48.856;9.088;2023-03-20T14:19:56;98220.16;;;14.27;52.72
42601;BME280;28229;48.856;9.088;2023-03-20T14:22:35;98214.84;;;14.39;53.39
42601;BME280;28229;48.856;9.088;2023-03-20T14:25:17;98218.28;;;14.39;51.74
42601;BME280;28229;48.856;9.088;2023-03-20T14:27:57;98219.41;;;14.43;52.49
42601;BME280;28229;48.856;9.088;2023-03-20T14:33:22;98221.97;;;14.38;51.02
42601;BME280;28229;48.856;9.088;2023-03-20T14:36:09;98216.25;;;14.30;50.94
42601;BME280;28229;48.856;9.088;2023-03-20T14:38:52;98216.84;;;14.20;50.73
42601;BME280;28229;48.856;9.088;2023-03-20T14:41:36;98216.38;;;14.23;51.62
42601;BME280;28229;48.856;9.088;2023-03-20T14:47:00;98213.28;;;14.26;51.19
42601;BME280;28229;48.856;9.088;2023-03-20T14:49:44;98212.69;;;14.24;51.25
42601;BME280;28229;48.856;9.088;2023-03-20T14:55:26;98210.31;;;13.99;52.18
42601;BME280;28229;48.856;9.088;2023-03-20T14:58:03;98210.34;;;13.87;53.71
42601;BME280;28229;48.856;9.088;2023-03-20T15:00:43;98212.75;;;13.77;53.45
42601;BME280;28229;48.856;9.088;2023-03-20T15:03:13;98212.41;;;13.73;53.56
42601;BME280;28229;48.856;9.088;2023-03-20T15:05:40;98207.56;;;13.70;54.01
42601;BME280;28229;48.856;9.088;2023-03-20T15:08:10;98201.94;;;13.66;53.71
42601;BME280;28229;48.856;9.088;2023-03-20T15:10:48;98204.03;;;13.64;54.44
42601;BME280;28229;48.856;9.088;2023-03-20T15:13:15;98202.66;;;13.62;54.49
42601;BME280;28229;48.856;9.088;2023-03-20T15:15:57;98204.59;;;13.66;55.05
42601;BME280;28229;48.856;9.088;2023-03-20T15:18:26;98205.97;;;13.57;55.13
42601;BME280;28229;48.856;9.088;2023-03-20T15:20:55;98204.91;;;13.58;53.91
42601;BME280;28229;48.856;9.088;2023-03-20T15:23:21;98202.28;;;13.46;55.33
42601;BME280;28229;48.856;9.088;2023-03-20T15:25:48;98194.25;;;13.53;55.40
42601;BME280;28229;48.856;9.088;2023-03-20T15:28:23;98195.72;;;13.49;55.81
42601;BME280;28229;48.856;9.088;2023-03-20T15:30:52;98202.06;;;13.48;54.66
42601;BME280;28229;48.856;9.088;2023-03-20T15:33:34;98197.91;;;13.40;55.67
42601;BME280;28229;48.856;9.088;2023-03-20T15:36:10;98215.47;;;13.35;56.95
42601;BME280;28229;48.856;9.088;2023-03-20T15:38:39;98202.84;;;13.37;56.51
42601;BME280;28229;48.856;9.088;2023-03-20T15:41:07;98199.63;;;13.35;57.18